Time;durP1;ratioP1;P1;durP2;ratioP2;P2;SDS_P1;SDS_P2;PMS_P1;PMS_P2;Temp;Humidity;BMP_temperature;BMP_pressure;BME280_temperature;BME280_humidity;BME280_pressure;Samples;Min_cycle;Max_cycle;Signal;HPM_P1;HPM_P2
2023/10/10 00:01:05;;;;;;;5.28;3.03;;;7.50;52.70;;;;;;5078660;28;20066;-73
2023/10/10 00:03:32;;;;;;;7.20;4.40;;;7.50;52.80;;;;;;5096711;28;20062;-73
2023/10/10 00:05:59;;;;;;;4.40;2.85;;;7.50;52.80;;;;;;5097061;28;20524;-73
2023/10/10 00:08:35;;;;;;;4.35;3.00;;;7.40;52.90;;;;;;5079086;28;20035;-73
2023/10/10 00:11:14;;;;;;;4.18;2.97;;;7.40;53.10;;;;;;5078654;28;20077;-73
2023/10/10 00:13:46;;;;;;;3.65;2.72;;;7.40;53.10;;;;;;5078637;28;20384;-72
2023/10/10 00:16:19;;;;;;;4.97;2.78;;;7.50;53.20;;;;;;5059177;28;20031;-72
2023/10/10 00:18:46;;;;;;;4.88;3.22;;;7.50;53.10;;;;;;5059177;28;20035;-74
2023/10/10 00:21:23;;;;;;;4.53;2.75;;;7.50;53.10;;;;;;5060927;28;20031;-73
2023/10/10 00:23:49;;;;;;;3.25;2.70;;;7.50;53.10;;;;;;5096517;28;20119;-73
2023/10/10 00:26:26;;;;;;;4.25;2.80;;;7.40;53.20;;;;;;5096704;28;20028;-73
2023/10/10 00:28:57;;;;;;;4.68;2.78;;;7.40;53.30;;;;;;5079171;28;20043;-72
2023/10/10 00:31:26;;;;;;;4.63;3.03;;;7.30;53.30;;;;;;5096477;28;20090;-77
2023/10/10 00:33:54;;;;;;;4.15;2.92;;;7.30;53.60;;;;;;5078509;28;20105;-74
2023/10/10 00:36:22;;;;;;;5.30;3.53;;;7.30;53.60;;;;;;5096706;28;20028;-73
2023/10/10 00:41:54;;;;;;;3.78;3.10;;;7.20;53.80;;;;;;5096234;28;20031;-73
2023/10/10 00:44:22;;;;;;;5.30;3.23;;;7.10;53.90;;;;;;5078470;28;20028;-73
2023/10/10 00:46:55;;;;;;;6.50;3.40;;;7.00;53.90;;;;;;5096353;28;20024;-73
2023/10/10 00:49:25;;;;;;;4.05;3.13;;;7.10;54.30;;;;;;5078369;28;20035;-72
2023/10/10 00:51:55;;;;;;;4.85;3.20;;;7.00;54.10;;;;;;5096047;28;20039;-73
2023/10/10 00:56:54;;;;;;;4.30;2.80;;;7.10;54.20;;;;;;5096004;28;20035;-72
2023/10/10 00:59:42;;;;;;;4.03;3.10;;;7.20;54.10;;;;;;5095737;28;20130;-73
2023/10/10 01:02:10;;;;;;;3.75;2.85;;;7.20;54.20;;;;;;5078138;28;20385;-73
2023/10/10 01:04:57;;;;;;;4.47;3.10;;;7.20;54.10;;;;;;5096338;28;20381;-73
2023/10/10 01:07:25;;;;;;;4.70;3.25;;;7.20;54.10;;;;;;5077883;28;20126;-73
2023/10/10 01:12:35;;;;;;;4.55;3.05;;;7.20;54.10;;;;;;5096058;28;20496;-72
2023/10/10 01:15:08;;;;;;;6.13;3.25;;;7.20;54.10;;;;;;5077633;28;20031;-73
2023/10/10 01:17:34;;;;;;;4.82;3.28;;;7.10;54.30;;;;;;5077603;28;20496;-74
2023/10/10 01:20:18;;;;;;;5.03;3.40;;;7.10;54.40;;;;;;5095424;28;20095;-74
2023/10/10 01:22:47;;;;;;;5.53;3.42;;;7.00;54.40;;;;;;5095507;28;20488;-73
2023/10/10 01:28:13;;;;;;;5.47;3.35;;;6.90;54.90;;;;;;5095748;28;20028;-74
2023/10/10 01:33:35;;;;;;;4.38;3.08;;;6.70;55.00;;;;;;5095641;28;20104;-73
2023/10/10 01:36:03;;;;;;;4.32;3.17;;;6.60;55.30;;;;;;5095500;28;20111;-74
2023/10/10 01:38:47;;;;;;;6.03;3.45;;;6.60;55.40;;;;;;5095635;28;20031;-74
2023/10/10 01:41:21;;;;;;;3.95;3.40;;;6.60;55.30;;;;;;5076808;28;20080;-73
2023/10/10 01:43:47;;;;;;;4.82;3.60;;;6.60;55.40;;;;;;5077351;28;20036;-73
2023/10/10 01:46:27;;;;;;;5.78;3.22;;;6.50;55.50;;;;;;5095127;28;20422;-72
2023/10/10 01:48:53;;;;;;;4.25;3.20;;;6.50;55.60;;;;;;5076905;28;20028;-73
2023/10/10 01:51:19;;;;;;;5.53;3.63;;;6.40;55.80;;;;;;5094727;28;20448;-73
2023/10/10 01:53:45;;;;;;;4.63;3.17;;;6.40;55.80;;;;;;5095064;28;20032;-74
2023/10/10 01:56:14;;;;;;;4.10;3.17;;;6.40;55.90;;;;;;5095221;28;20385;-72
2023/10/10 01:58:41;;;;;;;7.80;3.50;;;6.40;55.80;;;;;;5076482;28;20028;-75
2023/10/10 02:01:13;;;;;;;4.50;3.40;;;6.40;55.80;;;;;;5094293;28;20040;-73
2023/10/10 02:03:40;;;;;;;5.00;3.40;;;6.40;56.10;;;;;;5095067;28;20052;-73
2023/10/10 02:06:22;;;;;;;4.95;3.38;;;6.30;56.00;;;;;;5094601;28;20032;-74
2023/10/10 02:08:51;;;;;;;3.80;3.05;;;6.30;56.20;;;;;;5093890;28;20085;-74
2023/10/10 02:11:20;;;;;;;4.50;3.38;;;6.30;56.30;;;;;;5089488;28;20024;-73
2023/10/10 02:13:50;;;;;;;4.22;3.15;;;6.30;56.40;;;;;;5076305;28;20032;-72
2023/10/10 02:16:35;;;;;;;5.40;3.50;;;6.30;56.20;;;;;;5094459;28;20020;-73
2023/10/10 02:19:06;;;;;;;6.13;3.85;;;6.30;56.40;;;;;;5094409;28;20024;-73
2023/10/10 02:21:42;;;;;;;6.25;4.28;;;6.20;56.50;;;;;;5094309;28;20024;-74
2023/10/10 02:24:48;;;;;;;4.63;3.00;;;6.20;56.60;;;;;;5094509;28;20119;-74
2023/10/10 02:27:04;;;;;;;5.22;3.50;;;6.10;56.80;;;;;;5091111;28;20032;-72
2023/10/10 02:32:08;;;;;;;5.32;3.20;;;6.10;57.10;;;;;;5094332;28;20040;-73
2023/10/10 02:34:44;;;;;;;5.50;3.60;;;6.10;57.00;;;;;;5094197;28;20034;-73
2023/10/10 02:37:14;;;;;;;5.55;3.55;;;6.00;57.00;;;;;;5094272;28;20081;-73
2023/10/10 02:39:54;;;;;;;5.93;3.35;;;6.00;57.20;;;;;;5075611;28;20038;-73
2023/10/10 02:42:20;;;;;;;4.13;3.22;;;5.90;57.20;;;;;;5094019;28;20036;-73
2023/10/10 02:44:46;;;;;;;4.65;3.22;;;5.90;57.30;;;;;;5094352;28;20064;-73
2023/10/10 02:47:13;;;;;;;5.05;3.30;;;5.90;57.40;;;;;;5094476;28;20058;-73
2023/10/10 02:49:42;;;;;;;5.05;3.50;;;5.80;57.60;;;;;;5075909;28;20028;-72
2023/10/10 02:52:08;;;;;;;3.72;3.00;;;5.80;57.60;;;;;;5094287;28;20035;-71
2023/10/10 02:54:35;;;;;;;4.45;3.25;;;5.70;57.70;;;;;;5093991;28;20024;-72
2023/10/10 02:57:53;;;;;;;4.93;3.22;;;5.70;57.90;;;;;;5093906;28;20028;-72
2023/10/10 02:59:59;;;;;;;4.65;3.30;;;5.70;57.90;;;;;;5082390;28;20395;-72
2023/10/10 03:02:29;;;;;;;4.20;3.20;;;5.80;57.90;;;;;;5075532;28;20130;-73
2023/10/10 03:07:29;;;;;;;5.00;3.30;;;5.70;58.10;;;;;;5093969;28;20405;-73
2023/10/10 03:10:22;;;;;;;4.78;3.38;;;5.70;58.00;;;;;;5075827;28;20028;-72
2023/10/10 03:12:50;;;;;;;5.45;3.33;;;5.70;58.10;;;;;;5075607;28;20036;-73
2023/10/10 03:34:10;;;;;;;5.38;3.75;;;5.50;58.70;;;;;;5097612;28;20036;-73
2023/10/10 05:23:29;;;;;;;4.25;3.45;;;5.60;58.70;;;;;;5097717;28;20114;-73
2023/10/10 05:25:31;;;;;;;6.13;3.90;;;7.20;58.70;;;;;;5093631;28;20046;-73
2023/10/10 05:28:00;;;;;;;5.45;3.58;;;7.30;58.50;;;;;;5076272;28;20036;-71
2023/10/10 05:30:27;;;;;;;4.97;3.72;;;7.40;58.50;;;;;;5075735;28;20027;-73
2023/10/10 05:33:01;;;;;;;6.75;3.78;;;7.40;58.40;;;;;;5076803;28;20134;-73
2023/10/10 05:35:34;;;;;;;5.38;3.80;;;7.50;58.30;;;;;;5095382;28;20024;-72
2023/10/10 05:38:01;;;;;;;3.67;3.10;;;7.60;58.20;;;;;;5095420;28;20032;-72
2023/10/10 05:40:27;;;;;;;5.63;3.80;;;7.60;58.10;;;;;;5076964;28;20129;-73
2023/10/10 05:42:57;;;;;;;4.68;3.78;;;7.70;58.00;;;;;;5094391;28;20370;-72
2023/10/10 05:45:22;;;;;;;4.85;3.60;;;7.70;57.90;;;;;;5076840;28;20028;-71
2023/10/10 05:47:48;;;;;;;5.68;3.40;;;7.80;57.90;;;;;;5076253;28;20077;-73
2023/10/10 05:50:14;;;;;;;5.72;3.38;;;7.80;57.90;;;;;;5094461;28;20032;-73
2023/10/10 05:52:40;;;;;;;4.55;3.50;;;7.80;57.80;;;;;;5094709;28;20036;-72
2023/10/10 05:55:13;;;;;;;3.58;3.25;;;7.90;57.80;;;;;;5094884;28;20024;-74
2023/10/10 05:57:42;;;;;;;4.63;3.65;;;7.90;57.70;;;;;;5076888;28;20024;-73
2023/10/10 06:00:13;;;;;;;4.93;3.10;;;8.00;57.70;;;;;;5076832;28;20028;-72
2023/10/10 06:02:46;;;;;;;6.10;3.65;;;8.10;57.60;;;;;;5076275;28;20492;-72
2023/10/10 06:05:16;;;;;;;5.00;3.25;;;8.10;57.60;;;;;;5060333;28;20057;-72
2023/10/10 06:07:44;;;;;;;4.85;3.20;;;8.20;57.60;;;;;;5076347;28;20469;-72
2023/10/10 06:10:16;;;;;;;4.55;3.58;;;8.30;57.60;;;;;;5094990;28;20028;-75
2023/10/10 06:12:42;;;;;;;3.90;3.00;;;8.30;57.50;;;;;;5076623;28;20036;-75
2023/10/10 06:15:08;;;;;;;4.82;3.45;;;8.40;57.50;;;;;;5074890;28;20051;-73
2023/10/10 06:17:34;;;;;;;5.10;3.67;;;8.40;57.40;;;;;;5094963;28;20117;-74
2023/10/10 06:20:00;;;;;;;3.38;2.85;;;8.50;57.40;;;;;;5075276;28;20480;-77
2023/10/10 06:22:29;;;;;;;4.22;2.97;;;8.50;57.30;;;;;;5075989;28;20485;-74
2023/10/10 06:24:58;;;;;;;3.10;2.80;;;8.60;57.20;;;;;;5094128;28;20034;-75
2023/10/10 06:27:28;;;;;;;4.65;3.30;;;8.70;57.20;;;;;;5094095;28;20456;-80
2023/10/10 06:30:00;;;;;;;4.22;3.30;;;8.70;57.10;;;;;;5075866;28;20028;-77
2023/10/10 06:32:30;;;;;;;4.20;2.97;;;8.80;57.10;;;;;;5076740;28;20043;-73
2023/10/10 06:37:43;;;;;;;3.78;2.90;;;8.90;56.90;;;;;;5092857;28;20032;-74
2023/10/10 06:40:10;;;;;;;4.28;2.95;;;9.00;56.90;;;;;;5076009;28;20077;-78
2023/10/10 06:42:37;;;;;;;4.03;2.90;;;9.00;56.70;;;;;;5067773;28;20090;-76
2023/10/10 06:45:10;;;;;;;3.97;2.95;;;9.10;56.70;;;;;;5066179;28;20032;-78
2023/10/10 06:47:39;;;;;;;4.72;2.90;;;9.10;56.70;;;;;;5064245;28;20102;-77
2023/10/10 06:50:11;;;;;;;3.38;2.70;;;9.20;56.60;;;;;;5082608;28;20027;-77
2023/10/10 06:52:43;;;;;;;3.53;2.78;;;9.30;56.60;;;;;;5072255;28;20037;-79
2023/10/10 06:55:21;;;;;;;3.40;2.50;;;9.30;57.00;;;;;;5064448;28;20074;-78
2023/10/10 06:57:57;;;;;;;3.75;2.50;;;9.40;56.30;;;;;;5064366;28;20438;-81
2023/10/10 07:02:57;;;;;;;2.78;2.40;;;9.50;56.10;;;;;;5084400;28;20044;-77
2023/10/10 07:05:33;;;;;;;3.10;2.70;;;9.60;56.00;;;;;;5086758;28;20036;-80
2023/10/10 07:08:12;;;;;;;3.70;2.40;;;9.70;55.90;;;;;;5085393;28;20032;-79
2023/10/10 07:10:41;;;;;;;2.55;2.30;;;9.70;55.70;;;;;;5084418;28;20031;-79
2023/10/10 07:13:14;;;;;;;3.42;2.47;;;9.80;55.70;;;;;;5083602;28;20039;-75
2023/10/10 07:15:50;;;;;;;47.17;29.15;;;9.80;55.50;;;;;;5065584;28;20028;-73
2023/10/10 07:18:22;;;;;;;52.42;33.80;;;9.90;60.50;;;;;;5063253;28;20028;-76
2023/10/10 07:21:04;;;;;;;39.65;25.30;;;10.20;61.40;;;;;;5082403;28;20024;-78
2023/10/10 07:24:17;;;;;;;27.33;15.48;;;10.50;59.20;;;;;;5068922;28;20048;-78
2023/10/10 07:26:20;;;;;;;14.77;9.20;;;10.70;57.60;;;;;;5072133;28;20377;-74
2023/10/10 07:28:49;;;;;;;10.63;7.32;;;10.70;56.40;;;;;;5084521;28;20082;-75
2023/10/10 07:31:22;;;;;;;9.48;5.82;;;10.70;55.90;;;;;;5081728;28;20070;-75
2023/10/10 07:34:14;;;;;;;8.45;5.45;;;10.70;55.60;;;;;;5082341;28;20503;-76
2023/10/10 07:36:43;;;;;;;5.72;4.00;;;10.60;55.30;;;;;;5066705;28;20052;-75
2023/10/10 07:41:57;;;;;;;4.07;2.90;;;10.60;54.90;;;;;;5083363;28;20063;-74
2023/10/10 07:44:23;;;;;;;4.03;2.95;;;10.60;54.60;;;;;;5084068;28;20385;-75
2023/10/10 07:49:34;;;;;;;3.05;2.50;;;10.60;54.20;;;;;;5083763;28;20085;-76
2023/10/10 07:52:04;;;;;;;2.55;2.15;;;10.50;54.10;;;;;;5065091;28;20021;-74
2023/10/10 07:54:38;;;;;;;2.30;2.10;;;10.50;54.00;;;;;;5031640;28;20519;-74
2023/10/10 07:57:10;;;;;;;2.00;1.90;;;10.50;53.90;;;;;;5081591;28;20034;-74
2023/10/10 07:59:36;;;;;;;2.28;1.98;;;10.60;53.70;;;;;;5064692;28;20024;-74
2023/10/10 08:02:49;;;;;;;2.10;1.90;;;10.60;53.60;;;;;;5064024;28;20028;-76
2023/10/10 08:04:57;;;;;;;2.50;2.13;;;10.60;53.50;;;;;;5069897;28;20044;-77
2023/10/10 08:07:23;;;;;;;1.92;1.73;;;10.60;53.30;;;;;;5048560;28;20028;-75
2023/10/10 08:09:49;;;;;;;2.03;1.83;;;10.60;53.00;;;;;;5085240;28;20441;-76
2023/10/10 08:12:16;;;;;;;1.60;1.50;;;10.60;52.70;;;;;;5086559;28;20028;-76
2023/10/10 08:14:42;;;;;;;2.00;1.80;;;10.60;52.80;;;;;;5068779;28;20112;-77
2023/10/10 08:17:25;;;;;;;1.77;1.63;;;10.70;52.60;;;;;;5069034;28;20020;-75
2023/10/10 08:19:51;;;;;;;2.35;1.80;;;10.60;52.80;;;;;;5085719;28;20103;-76
2023/10/10 08:22:30;;;;;;;2.20;1.77;;;10.70;52.80;;;;;;5088376;28;20075;-76
2023/10/10 08:24:55;;;;;;;1.80;1.70;;;10.70;52.60;;;;;;5068111;28;20481;-76
2023/10/10 08:27:22;;;;;;;2.75;2.17;;;10.70;52.70;;;;;;5098702;28;20023;-76
2023/10/10 08:29:50;;;;;;;2.10;1.90;;;10.70;52.60;;;;;;5076065;28;20020;-74
2023/10/10 08:32:16;;;;;;;1.90;1.70;;;10.70;52.50;;;;;;5066831;28;20021;-74
2023/10/10 08:34:45;;;;;;;2.08;1.90;;;10.80;52.60;;;;;;5068490;28;20138;-76
2023/10/10 08:37:11;;;;;;;2.22;1.80;;;10.70;52.50;;;;;;5068132;28;20029;-76
2023/10/10 08:39:37;;;;;;;1.90;1.80;;;10.70;52.60;;;;;;5086828;28;20381;-75
2023/10/10 08:42:22;;;;;;;2.17;1.98;;;10.80;52.60;;;;;;5084852;28;20013;-76
2023/10/10 08:44:55;;;;;;;2.10;1.90;;;10.80;52.60;;;;;;5067792;28;20461;-75
2023/10/10 08:47:31;;;;;;;2.28;2.08;;;10.80;52.50;;;;;;5086824;28;20065;-75
2023/10/10 08:49:58;;;;;;;1.92;1.83;;;10.80;52.20;;;;;;5086629;28;20111;-74
2023/10/10 08:52:24;;;;;;;1.90;1.80;;;10.80;52.40;;;;;;5066092;28;20032;-74
2023/10/10 08:54:53;;;;;;;2.05;1.85;;;10.80;52.30;;;;;;5067682;28;20042;-76
2023/10/10 08:57:26;;;;;;;1.83;1.73;;;10.80;52.10;;;;;;5066006;28;20020;-75
2023/10/10 08:59:52;;;;;;;2.08;1.80;;;10.90;52.20;;;;;;5084767;28;20012;-74
2023/10/10 09:02:19;;;;;;;1.70;1.60;;;10.90;52.10;;;;;;5084648;28;20055;-76
2023/10/10 09:04:46;;;;;;;2.15;1.90;;;11.00;52.10;;;;;;5094136;28;20043;-74
2023/10/10 09:07:20;;;;;;;1.80;1.70;;;11.00;52.00;;;;;;5086705;28;20027;-75
2023/10/10 09:09:55;;;;;;;6.50;1.98;;;11.10;51.90;;;;;;5086531;28;20104;-76
2023/10/10 09:12:21;;;;;;;1.85;1.75;;;11.10;51.70;;;;;;5083577;28;20032;-74
2023/10/10 09:14:50;;;;;;;2.47;1.90;;;11.10;51.70;;;;;;5068293;28;20389;-75
2023/10/10 09:17:40;;;;;;;2.10;1.90;;;11.10;52.10;;;;;;5070717;28;20059;-76
2023/10/10 09:20:22;;;;;;;2.63;1.88;;;11.20;51.60;;;;;;5070723;28;20032;-76
2023/10/10 09:22:51;;;;;;;2.10;1.85;;;11.10;51.60;;;;;;5054460;28;20029;-75
2023/10/10 09:25:25;;;;;;;5.25;2.00;;;11.20;51.50;;;;;;5068569;28;20024;-76
2023/10/10 09:28:04;;;;;;;1.80;1.70;;;11.20;51.50;;;;;;5084428;28;20020;-76
2023/10/10 09:30:50;;;;;;;1.80;1.70;;;11.20;51.30;;;;;;5082577;28;20031;-78
2023/10/10 09:33:27;;;;;;;5.43;3.35;;;11.20;51.80;;;;;;5084991;28;20035;-69
2023/10/10 09:36:15;;;;;;;19.98;12.98;;;11.30;51.60;;;;;;5067951;28;20036;-70
2023/10/10 09:38:53;;;;;;;12.55;7.88;;;11.50;54.80;;;;;;5068208;28;20032;-71
2023/10/10 09:41:37;;;;;;;6.43;3.88;;;11.90;54.30;;;;;;5067681;28;20167;-83
2023/10/10 09:49:51;;;;;;;4.55;2.58;;;12.70;50.20;;;;;;5084846;28;20036;-72
2023/10/10 09:57:40;;;;;;;2.42;2.03;;;12.50;50.10;;;;;;5084410;28;20433;-72
2023/10/10 10:00:13;;;;;;;3.70;1.90;;;12.50;50.00;;;;;;5068013;28;20036;-72
2023/10/10 10:02:48;;;;;;;2.15;1.90;;;12.50;49.80;;;;;;5086629;28;20385;-73
2023/10/10 10:05:18;;;;;;;2.85;1.67;;;12.50;49.90;;;;;;5083121;28;20024;-73
2023/10/10 10:08:09;;;;;;;1.60;1.50;;;12.50;49.80;;;;;;5066541;28;20029;-72
2023/10/10 10:11:09;;;;;;;1.60;1.50;;;12.40;49.50;;;;;;5092245;28;20031;-80
2023/10/10 10:13:53;;;;;;;1.60;1.50;;;12.40;49.50;;;;;;5094788;28;20089;-71
2023/10/10 10:16:37;;;;;;;2.33;1.83;;;12.40;49.60;;;;;;5092624;28;20114;-74
2023/10/10 10:19:17;;;;;;;2.70;1.90;;;12.40;49.40;;;;;;5094293;28;20269;-73
2023/10/10 10:22:07;;;;;;;1.95;1.80;;;12.40;49.40;;;;;;5094120;28;20112;-75
2023/10/10 10:25:07;;;;;;;2.03;1.67;;;12.40;49.40;;;;;;5076319;28;20029;-75
2023/10/10 10:27:39;;;;;;;1.50;1.40;;;12.40;49.10;;;;;;5076339;28;20025;-75
2023/10/10 10:32:53;;;;;;;3.00;1.77;;;12.30;49.20;;;;;;5074084;28;20039;-75
2023/10/10 10:35:24;;;;;;;1.88;1.75;;;12.30;49.30;;;;;;5074452;28;20031;-75
2023/10/10 10:38:00;;;;;;;2.10;1.90;;;12.40;49.40;;;;;;5074062;28;20024;-74
2023/10/10 10:40:50;;;;;;;2.97;1.77;;;12.40;49.30;;;;;;5058600;28;20119;-75
2023/10/10 10:43:20;;;;;;;1.80;1.70;;;12.40;49.40;;;;;;5092670;28;20063;-74
2023/10/10 10:45:51;;;;;;;2.10;1.90;;;12.50;49.30;;;;;;5076376;28;20032;-73
2023/10/10 10:48:30;;;;;;;1.80;1.70;;;12.60;49.20;;;;;;5093518;28;20036;-75
2023/10/10 10:51:22;;;;;;;2.33;1.90;;;12.70;49.10;;;;;;5092857;28;20032;-74
2023/10/10 10:53:56;;;;;;;2.33;1.88;;;12.80;49.10;;;;;;5080228;28;20042;-75
2023/10/10 11:01:28;;;;;;;1.95;1.83;;;12.90;48.70;;;;;;5092263;28;20041;-72
2023/10/10 11:03:55;;;;;;;2.20;2.00;;;13.00;48.70;;;;;;5093631;28;20493;-75
2023/10/10 11:06:24;;;;;;;1.92;1.67;;;13.00;48.70;;;;;;5075321;28;20093;-73
2023/10/10 11:13:54;;;;;;;21.15;12.75;;;13.10;48.30;;;;;;5094222;28;20032;-71
2023/10/10 11:16:28;;;;;;;8.88;4.43;;;13.30;60.60;;;;;;5074069;28;20025;-73
2023/10/10 11:19:04;;;;;;;8.40;4.67;;;13.70;64.00;;;;;;5058828;28;20028;-73
2023/10/10 11:21:30;;;;;;;16.38;11.00;;;14.20;64.10;;;;;;5093994;28;20032;-71
2023/10/10 11:23:58;;;;;;;6.85;4.40;;;14.70;62.80;;;;;;5084735;28;20032;-73
2023/10/10 11:26:33;;;;;;;6.97;3.72;;;15.10;60.90;;;;;;5086377;28;20350;-74
2023/10/10 11:28:59;;;;;;;4.10;2.80;;;15.30;58.30;;;;;;5064214;28;20028;-75
2023/10/10 11:31:29;;;;;;;4.32;2.95;;;15.30;56.20;;;;;;5084039;28;20027;-74
2023/10/10 11:34:26;;;;;;;3.42;2.28;;;15.20;55.30;;;;;;5084666;28;20039;-74
2023/10/10 11:37:12;;;;;;;3.58;2.58;;;15.00;54.90;;;;;;5070427;28;20025;-74
2023/10/10 11:39:46;;;;;;;2.95;2.22;;;14.70;54.40;;;;;;5082893;28;20469;-76
2023/10/10 11:42:35;;;;;;;3.50;2.47;;;14.50;54.40;;;;;;5083986;28;20114;-80
2023/10/10 11:45:06;;;;;;;2.05;1.83;;;14.40;54.30;;;;;;5065423;28;20032;-73
2023/10/10 11:47:42;;;;;;;1.60;1.50;;;14.30;53.60;;;;;;5086211;28;20069;-72
2023/10/10 11:50:11;;;;;;;2.20;1.80;;;14.20;53.10;;;;;;5069215;28;20373;-76
2023/10/10 11:52:56;;;;;;;1.70;1.60;;;14.00;52.80;;;;;;5065642;28;20036;-74
2023/10/10 11:55:30;;;;;;;1.70;1.60;;;14.00;52.10;;;;;;5069420;28;20035;-78
2023/10/10 11:58:06;;;;;;;1.48;1.35;;;14.00;52.20;;;;;;5067679;28;20206;-78
2023/10/10 12:00:42;;;;;;;1.55;1.45;;;14.00;52.10;;;;;;5068904;28;20028;-75
2023/10/10 12:03:12;;;;;;;1.55;1.42;;;14.10;51.40;;;;;;5067192;28;20386;-76
2023/10/10 12:05:47;;;;;;;1.70;1.60;;;14.10;51.10;;;;;;5072998;28;20085;-75
2023/10/10 12:08:15;;;;;;;2.13;1.48;;;14.00;50.30;;;;;;5090303;28;20032;-75
2023/10/10 12:10:47;;;;;;;1.50;1.40;;;14.00;50.00;;;;;;5092170;28;20020;-76
2023/10/10 12:16:07;;;;;;;1.50;1.40;;;13.80;49.00;;;;;;5090668;28;20082;-74
2023/10/10 12:18:34;;;;;;;1.75;1.40;;;13.80;49.40;;;;;;5088821;28;20522;-76
2023/10/10 12:21:01;;;;;;;1.35;1.20;;;13.70;49.40;;;;;;5086113;28;20437;-76
2023/10/10 12:23:31;;;;;;;1.35;1.25;;;13.70;49.20;;;;;;5067595;28;20115;-76
2023/10/10 12:25:59;;;;;;;1.27;1.20;;;13.80;49.10;;;;;;5085860;28;20016;-77
2023/10/10 12:28:25;;;;;;;1.33;1.23;;;13.70;48.90;;;;;;5068739;28;20020;-77
2023/10/10 12:30:52;;;;;;;1.92;1.38;;;13.80;48.80;;;;;;5087335;28;20099;-77
2023/10/10 12:33:19;;;;;;;1.40;1.30;;;13.90;48.50;;;;;;5067622;28;20071;-77
2023/10/10 12:35:48;;;;;;;1.42;1.33;;;14.00;48.30;;;;;;5067052;28;20070;-76
2023/10/10 12:39:19;;;;;;;2.10;1.38;;;13.90;48.20;;;;;;5085727;28;20059;-78
2023/10/10 12:41:46;;;;;;;1.38;1.27;;;14.00;47.60;;;;;;5083696;28;20116;-79
2023/10/10 12:44:12;;;;;;;1.13;1.10;;;13.90;47.80;;;;;;5084421;28;20485;-77
2023/10/10 12:46:40;;;;;;;1.50;1.40;;;13.90;47.70;;;;;;5091512;28;20096;-76
2023/10/10 12:49:11;;;;;;;1.52;1.42;;;13.80;47.50;;;;;;5090795;28;20131;-77
2023/10/10 12:51:44;;;;;;;1.48;1.38;;;13.70;47.50;;;;;;5069389;28;20081;-76
2023/10/10 12:54:20;;;;;;;1.60;1.50;;;13.70;47.30;;;;;;5085055;28;20067;-80
2023/10/10 12:56:54;;;;;;;1.50;1.40;;;13.60;47.60;;;;;;5081476;28;20115;-76
2023/10/10 12:59:20;;;;;;;124.78;101.63;;;13.60;47.60;;;;;;5087330;28;20016;-75
2023/10/10 13:01:46;;;;;;;58.40;44.78;;;13.60;47.30;;;;;;5087587;28;20040;-73
2023/10/10 13:04:17;;;;;;;16.77;11.43;;;13.50;47.40;;;;;;5084294;28;20375;-73
2023/10/10 13:06:43;;;;;;;5.40;3.63;;;13.50;47.60;;;;;;5067418;28;20370;-74
2023/10/10 13:09:14;;;;;;;2.22;1.75;;;13.40;47.60;;;;;;5084082;28;20032;-74
2023/10/10 13:11:48;;;;;;;1.70;1.60;;;13.40;47.50;;;;;;5085555;28;20036;-73
2023/10/10 13:14:19;;;;;;;3.15;1.73;;;13.40;47.60;;;;;;5088271;28;20462;-74
2023/10/10 13:19:11;;;;;;;2.28;1.67;;;13.30;47.60;;;;;;5075343;28;20067;-74
2023/10/10 13:21:39;;;;;;;1.85;1.52;;;13.20;47.70;;;;;;5057622;28;20035;-74
2023/10/10 13:24:13;;;;;;;1.63;1.52;;;13.20;47.80;;;;;;5075073;28;20371;-74
2023/10/10 13:26:40;;;;;;;1.90;1.70;;;13.20;47.90;;;;;;5074193;28;20036;-74
2023/10/10 13:29:07;;;;;;;3.25;1.50;;;13.20;47.80;;;;;;5077595;28;20032;-74
2023/10/10 13:31:33;;;;;;;1.90;1.42;;;13.20;47.80;;;;;;5095250;28;20024;-74
2023/10/10 13:33:59;;;;;;;1.70;1.60;;;13.20;47.80;;;;;;5077451;28;20043;-74
2023/10/10 13:36:25;;;;;;;2.03;1.40;;;13.20;47.60;;;;;;5076878;28;20458;-74
2023/10/10 13:38:57;;;;;;;1.95;1.70;;;13.20;47.50;;;;;;5095486;28;20035;-75
2023/10/10 13:41:27;;;;;;;1.58;1.45;;;13.10;47.50;;;;;;5095359;28;20473;-73
2023/10/10 13:43:59;;;;;;;1.58;1.48;;;13.10;47.40;;;;;;5076961;28;20082;-73
2023/10/10 13:46:27;;;;;;;1.70;1.55;;;13.00;47.40;;;;;;5095114;28;20107;-73
2023/10/10 13:48:53;;;;;;;1.92;1.70;;;12.90;47.40;;;;;;5095494;28;20028;-76
2023/10/10 13:51:19;;;;;;;2.75;1.60;;;12.90;47.50;;;;;;5095460;28;20024;-74
2023/10/10 13:53:46;;;;;;;1.98;1.77;;;12.80;47.50;;;;;;5095007;28;20031;-74
2023/10/10 13:56:16;;;;;;;2.45;1.70;;;12.80;47.50;;;;;;5094600;28;20474;-74
2023/10/10 13:58:48;;;;;;;1.83;1.70;;;12.80;47.60;;;;;;5076891;28;20032;-74
2023/10/10 14:01:18;;;;;;;3.05;1.45;;;12.70;47.50;;;;;;5076960;28;20034;-74
2023/10/10 14:03:45;;;;;;;1.58;1.45;;;12.80;47.70;;;;;;5094722;28;20052;-73
2023/10/10 14:06:45;;;;;;;1.85;1.50;;;12.70;47.70;;;;;;5076067;28;20077;-74
2023/10/10 14:09:03;;;;;;;1.63;1.45;;;12.70;47.50;;;;;;5093149;28;20040;-75
2023/10/10 14:11:32;;;;;;;4.18;1.67;;;12.70;47.60;;;;;;5095233;28;20127;-74
2023/10/10 14:13:59;;;;;;;1.55;1.45;;;12.70;47.60;;;;;;5077113;28;20088;-73
2023/10/10 14:16:25;;;;;;;1.35;1.35;;;12.70;47.50;;;;;;5094551;28;20032;-74
2023/10/10 14:18:50;;;;;;;1.80;1.52;;;12.70;47.40;;;;;;5094784;28;20476;-74
2023/10/10 14:21:24;;;;;;;1.67;1.58;;;12.70;47.20;;;;;;5094670;28;20028;-73
2023/10/10 14:24:04;;;;;;;2.35;1.70;;;12.70;48.00;;;;;;5094292;28;20492;-74
2023/10/10 14:26:33;;;;;;;1.80;1.70;;;12.60;47.30;;;;;;5076083;28;20036;-74
2023/10/10 14:29:04;;;;;;;1.42;1.33;;;12.60;47.50;;;;;;5076059;28;20115;-73
2023/10/10 14:31:31;;;;;;;1.63;1.33;;;12.60;47.50;;;;;;5094706;28;20480;-76
2023/10/10 14:34:01;;;;;;;2.05;1.60;;;12.60;47.50;;;;;;5076348;28;20115;-74
2023/10/10 14:36:27;;;;;;;1.65;1.55;;;12.60;47.50;;;;;;5093741;28;20115;-75
2023/10/10 14:38:53;;;;;;;1.65;1.50;;;12.60;47.50;;;;;;5076088;28;20028;-73
2023/10/10 14:41:23;;;;;;;1.67;1.58;;;12.60;47.40;;;;;;5076230;28;20020;-73
2023/10/10 14:43:54;;;;;;;2.22;1.67;;;12.60;47.50;;;;;;5076175;28;20030;-74
2023/10/10 14:46:31;;;;;;;1.90;1.70;;;12.60;47.50;;;;;;5075652;28;20032;-74
2023/10/10 14:49:05;;;;;;;2.17;1.70;;;12.50;47.50;;;;;;5076412;28;20482;-73
2023/10/10 14:51:35;;;;;;;2.10;1.90;;;12.50;47.60;;;;;;5075923;28;20028;-75
2023/10/10 14:54:06;;;;;;;1.70;1.60;;;12.50;47.60;;;;;;5075958;28;20047;-73
2023/10/10 14:56:36;;;;;;;2.03;1.83;;;12.50;47.70;;;;;;5093755;28;20108;-74
2023/10/10 14:59:17;;;;;;;2.35;1.75;;;12.50;47.70;;;;;;5075613;28;20469;-74
2023/10/10 15:01:47;;;;;;;1.92;1.80;;;12.40;47.70;;;;;;5094375;28;20354;-74
2023/10/10 15:04:17;;;;;;;1.92;1.70;;;12.40;47.80;;;;;;5093975;28;20067;-75
2023/10/10 15:06:45;;;;;;;1.98;1.77;;;12.30;47.80;;;;;;5093997;28;20028;-74
2023/10/10 15:09:14;;;;;;;2.38;2.17;;;12.30;47.80;;;;;;5076061;28;20122;-74
2023/10/10 15:11:45;;;;;;;2.30;2.10;;;12.20;47.90;;;;;;5076228;28;20024;-74
2023/10/10 15:14:11;;;;;;;2.78;2.20;;;12.20;48.00;;;;;;5094602;28;20024;-73
2023/10/10 15:16:38;;;;;;;3.40;2.10;;;12.20;48.10;;;;;;5075804;28;20077;-73
2023/10/10 15:19:06;;;;;;;2.63;2.20;;;12.10;48.10;;;;;;5077338;28;20028;-73
2023/10/10 15:21:32;;;;;;;2.55;2.17;;;12.10;48.20;;;;;;5098154;28;20114;-75
2023/10/10 15:24:11;;;;;;;2.47;2.13;;;12.10;48.20;;;;;;5097249;28;20032;-75
2023/10/10 15:26:37;;;;;;;2.45;1.90;;;12.00;48.30;;;;;;5098446;28;20473;-75
2023/10/10 15:29:03;;;;;;;2.92;2.13;;;12.00;48.30;;;;;;5097853;28;20032;-73
2023/10/10 15:31:31;;;;;;;2.10;1.90;;;11.90;48.40;;;;;;5097860;28;20035;-74
2023/10/10 15:34:00;;;;;;;3.42;2.05;;;11.90;48.50;;;;;;5097482;28;20032;-74
2023/10/10 15:36:30;;;;;;;2.15;1.83;;;11.80;48.50;;;;;;5097515;28;20051;-73
2023/10/10 15:39:06;;;;;;;2.90;2.10;;;11.80;48.60;;;;;;5097508;28;20109;-75
2023/10/10 15:41:34;;;;;;;2.80;2.33;;;11.80;48.70;;;;;;5079274;28;20024;-76
2023/10/10 15:44:03;;;;;;;3.78;2.50;;;11.70;48.70;;;;;;5097515;28;20024;-79
2023/10/10 15:46:34;;;;;;;4.15;2.60;;;11.70;48.80;;;;;;5079232;28;20481;-75
2023/10/10 15:49:00;;;;;;;3.28;2.55;;;11.60;48.80;;;;;;5097376;28;20030;-75
2023/10/10 15:51:27;;;;;;;3.40;2.40;;;11.60;48.90;;;;;;5078655;28;20500;-76
2023/10/10 15:53:54;;;;;;;2.35;2.15;;;11.60;49.00;;;;;;5079329;28;20040;-74
2023/10/10 15:56:27;;;;;;;3.17;2.42;;;11.50;49.00;;;;;;5097258;28;20544;-74
2023/10/10 15:58:53;;;;;;;2.53;2.20;;;11.50;49.00;;;;;;5097455;28;20028;-74
2023/10/10 16:01:30;;;;;;;4.85;2.47;;;11.50;49.10;;;;;;5097041;28;20123;-74
2023/10/10 16:04:05;;;;;;;2.50;2.30;;;11.50;49.20;;;;;;5078934;28;20052;-73
2023/10/10 16:06:35;;;;;;;2.30;2.10;;;11.50;49.30;;;;;;5097136;28;20401;-73
2023/10/10 16:09:13;;;;;;;2.35;2.15;;;11.40;49.30;;;;;;5097099;28;20028;-72
2023/10/10 16:11:40;;;;;;;3.28;2.03;;;11.40;49.30;;;;;;5096726;28;20064;-73
2023/10/10 16:14:13;;;;;;;2.42;2.00;;;11.40;49.40;;;;;;5096962;28;20036;-73
2023/10/10 16:16:45;;;;;;;2.53;2.10;;;11.30;49.40;;;;;;5079390;28;20458;-74
2023/10/10 16:19:21;;;;;;;2.67;2.15;;;11.30;49.40;;;;;;5078460;28;20024;-74